Cayuga, New York
Current Conditions -  °F | °C
As of 12:53 PM on Thursday 30 Oct 2014 (Local Time) from KPEO Reporting Station
Overcast Overcast  
Wind Chill: 41°   Ceiling: 3200
Heat Index: 45°   Visibility: 10mi
Dew Point: 35°   Wind: 8mph
Humidity: 68%   Direction: 280°W
Pressure: 30.06"   Gusts: NA
Location:  42.92°N, 76.73°W
Report Text: KPEO 301653Z AUTO 28007KT 10SM OVC032 07/02 A3006 RMK AO2 SLP183 T00720017
Loading
Personal Weather Stations






























Interactive Weather Map
Tropical Storm Tracking
New forecast layout! Learn more

10-Day Weather Forecast

Advertisements
Track Severe Weather on mobile